createdAt,value
2023-04-22T00:00:14.212Z,9.90
2023-04-22T00:03:09.341Z,10.10
2023-04-22T00:05:38.501Z,9.20
2023-04-22T00:08:06.985Z,10.30
2023-04-22T00:10:34.994Z,9.30
2023-04-22T00:13:03.298Z,9.30
2023-04-22T00:15:34.621Z,9.20
2023-04-22T00:18:03.356Z,9.80
2023-04-22T00:20:33.115Z,10.20
2023-04-22T00:23:00.987Z,9.90
2023-04-22T00:25:28.839Z,10.20
2023-04-22T00:27:57.308Z,11.40
2023-04-22T00:30:25.304Z,11.70
2023-04-22T00:32:53.914Z,11.30
2023-04-22T00:35:22.386Z,12.10
2023-04-22T00:37:50.260Z,13.00
2023-04-22T00:40:18.295Z,13.40
2023-04-22T00:42:49.559Z,13.40
2023-04-22T00:45:19.968Z,13.10
2023-04-22T00:47:49.241Z,12.30
2023-04-22T00:50:17.367Z,15.90
2023-04-22T00:52:45.259Z,18.00
2023-04-22T00:55:13.782Z,16.40
2023-04-22T00:57:42.599Z,15.60
2023-04-22T01:00:11.871Z,15.00
2023-04-22T01:02:40.662Z,15.20
2023-04-22T01:05:11.614Z,16.60
2023-04-22T01:07:39.635Z,14.60
2023-04-22T01:10:08.606Z,16.70
2023-04-22T01:12:36.386Z,15.40
2023-04-22T01:15:07.576Z,15.20
2023-04-22T01:17:36.372Z,14.30
2023-04-22T01:20:05.588Z,14.30
2023-04-22T01:22:41.075Z,14.90
2023-04-22T01:25:11.593Z,13.80
2023-04-22T01:27:41.092Z,13.50
2023-04-22T01:30:12.655Z,15.10
2023-04-22T01:32:41.428Z,14.60
2023-04-22T01:35:10.474Z,13.50
2023-04-22T01:37:39.329Z,13.60
2023-04-22T01:40:11.040Z,14.40
2023-04-22T01:42:39.390Z,13.00
2023-04-22T01:45:07.800Z,13.30
2023-04-22T01:47:35.735Z,13.30
2023-04-22T01:50:04.663Z,14.10
2023-04-22T01:52:32.933Z,14.70
2023-04-22T01:55:02.780Z,14.20
2023-04-22T01:57:30.697Z,13.40
2023-04-22T01:59:58.675Z,14.70
2023-04-22T02:02:27.526Z,13.70
2023-04-22T02:04:55.661Z,13.50
2023-04-22T02:07:23.962Z,15.00
2023-04-22T02:09:52.351Z,14.00
2023-04-22T02:12:20.187Z,13.00
2023-04-22T02:14:51.396Z,14.20
2023-04-22T02:17:19.710Z,14.30
2023-04-22T02:19:47.783Z,14.70
2023-04-22T02:22:17.134Z,14.90
2023-04-22T02:24:45.891Z,13.50
2023-04-22T02:27:13.756Z,13.20
2023-04-22T02:29:42.127Z,15.00
2023-04-22T02:32:10.759Z,13.60
2023-04-22T02:34:38.690Z,15.80
2023-04-22T02:37:06.500Z,14.80
2023-04-22T02:39:35.359Z,13.70
2023-04-22T02:42:03.307Z,14.50
2023-04-22T02:44:31.312Z,14.10
2023-04-22T02:46:59.724Z,13.40
2023-04-22T02:49:27.901Z,14.50
2023-04-22T02:51:57.416Z,14.70
2023-04-22T02:54:25.833Z,14.00
2023-04-22T02:56:53.657Z,13.90
2023-04-22T02:59:22.339Z,14.70
2023-04-22T03:01:50.927Z,14.90
2023-04-22T03:04:22.129Z,18.10
2023-04-22T03:06:50.216Z,15.30
2023-04-22T03:09:18.359Z,14.20
2023-04-22T03:11:46.312Z,14.40
2023-04-22T03:14:14.622Z,13.50
2023-04-22T03:16:42.463Z,13.40
2023-04-22T03:19:10.488Z,12.70
2023-04-22T03:21:38.411Z,13.40
2023-04-22T03:24:06.482Z,13.70
2023-04-22T03:26:35.227Z,14.60
2023-04-22T03:29:03.362Z,13.60
2023-04-22T03:31:31.377Z,13.90
2023-04-22T03:33:59.590Z,14.90
2023-04-22T03:36:33.446Z,14.90
2023-04-22T03:39:01.746Z,14.10
2023-04-22T03:41:29.719Z,13.20
2023-04-22T03:44:00.342Z,14.10
2023-04-22T03:46:29.554Z,13.90
2023-04-22T03:48:57.362Z,13.80
2023-04-22T03:51:25.416Z,14.20
2023-04-22T03:53:53.300Z,16.20
2023-04-22T03:56:21.703Z,17.60
2023-04-22T03:58:52.393Z,16.90
2023-04-22T04:01:21.008Z,15.50
2023-04-22T04:03:49.274Z,15.80
2023-04-22T04:06:17.348Z,15.90
2023-04-22T04:08:46.291Z,15.40
2023-04-22T04:11:14.418Z,14.20
2023-04-22T04:13:42.288Z,14.00
2023-04-22T04:16:10.652Z,13.30
2023-04-22T04:18:38.898Z,15.10
2023-04-22T04:21:06.862Z,13.80
2023-04-22T04:23:34.655Z,13.00
2023-04-22T04:26:03.117Z,13.70
2023-04-22T04:28:32.989Z,12.60
2023-04-22T04:31:03.007Z,12.50
2023-04-22T04:33:32.710Z,12.30
2023-04-22T04:36:00.622Z,14.00
2023-04-22T04:38:29.067Z,13.70
2023-04-22T04:40:56.918Z,13.10
2023-04-22T04:43:26.282Z,12.70
2023-04-22T04:45:54.374Z,12.60
2023-04-22T04:48:25.288Z,13.50
2023-04-22T04:50:54.310Z,13.50
2023-04-22T04:53:22.737Z,14.50
2023-04-22T04:55:54.211Z,14.30
2023-04-22T04:58:22.944Z,14.10
2023-04-22T05:00:51.819Z,14.40
2023-04-22T05:03:19.889Z,15.60
2023-04-22T05:05:49.125Z,14.90
2023-04-22T05:08:17.683Z,16.50
2023-04-22T05:10:45.543Z,15.80
2023-04-22T05:13:13.743Z,16.00
2023-04-22T05:15:41.877Z,16.60
2023-04-22T05:18:10.178Z,17.20
2023-04-22T05:20:38.062Z,16.80
2023-04-22T05:23:06.107Z,17.00
2023-04-22T05:25:33.937Z,15.90
2023-04-22T05:28:02.355Z,15.50
2023-04-22T05:30:30.303Z,16.50
2023-04-22T05:32:58.199Z,15.20
2023-04-22T05:35:26.239Z,13.90
2023-04-22T05:37:54.193Z,15.90
2023-04-22T05:40:27.857Z,15.80
2023-04-22T05:42:58.214Z,15.20
2023-04-22T05:45:26.096Z,15.40
2023-04-22T05:47:54.490Z,15.60
2023-04-22T05:50:23.412Z,16.10
2023-04-22T05:52:51.327Z,15.40
2023-04-22T05:55:19.344Z,15.70
2023-04-22T05:57:47.590Z,16.00
2023-04-22T06:00:19.016Z,16.30
2023-04-22T06:02:46.996Z,16.80
2023-04-22T06:05:15.144Z,17.30
2023-04-22T06:07:46.714Z,16.30
2023-04-22T06:10:14.562Z,16.20
2023-04-22T06:12:42.427Z,16.50
2023-04-22T06:15:11.769Z,16.20
2023-04-22T06:17:39.645Z,16.70
2023-04-22T06:20:08.365Z,17.50
2023-04-22T06:22:36.532Z,16.60
2023-04-22T06:25:04.744Z,16.60
2023-04-22T06:27:35.792Z,17.30
2023-04-22T06:30:05.045Z,17.70
2023-04-22T06:32:33.159Z,17.40
2023-04-22T06:35:01.058Z,16.60
2023-04-22T06:37:28.951Z,17.10
2023-04-22T06:39:56.915Z,16.50
2023-04-22T06:42:25.321Z,15.70
2023-04-22T06:44:53.191Z,16.10
2023-04-22T06:47:21.185Z,15.90
2023-04-22T06:49:50.418Z,15.80
2023-04-22T06:52:18.837Z,15.60
2023-04-22T06:54:46.792Z,15.50
2023-04-22T06:57:16.067Z,14.90
2023-04-22T06:59:46.719Z,15.50
2023-04-22T07:02:15.118Z,15.00
2023-04-22T07:04:43.189Z,14.70
2023-04-22T07:07:11.626Z,14.30
2023-04-22T07:09:40.033Z,13.70
2023-04-22T07:12:08.937Z,15.30
2023-04-22T07:14:37.456Z,13.90
2023-04-22T07:17:05.354Z,14.40
2023-04-22T07:19:34.795Z,14.00
2023-04-22T07:22:04.174Z,15.10
2023-04-22T07:24:32.635Z,14.40
2023-04-22T07:27:02.679Z,14.80
2023-04-22T07:29:30.566Z,14.20
2023-04-22T07:31:58.406Z,15.40
2023-04-22T07:34:26.843Z,15.20
2023-04-22T07:36:54.933Z,14.30
2023-04-22T07:39:23.134Z,14.80
2023-04-22T07:41:51.688Z,13.90
2023-04-22T07:44:21.837Z,12.80
2023-04-22T07:46:50.804Z,13.70
2023-04-22T07:49:20.018Z,12.50
2023-04-22T07:51:48.385Z,13.00
2023-04-22T07:54:16.728Z,12.90
2023-04-22T07:56:44.637Z,13.30
2023-04-22T07:59:12.448Z,13.70
2023-04-22T08:01:40.455Z,13.60
2023-04-22T08:04:08.616Z,13.50
2023-04-22T08:06:37.234Z,13.20
2023-04-22T08:09:05.797Z,12.80
2023-04-22T08:11:33.735Z,12.70
2023-04-22T08:14:01.654Z,12.30
2023-04-22T08:16:29.668Z,12.00
2023-04-22T08:18:57.999Z,11.70
2023-04-22T08:21:27.576Z,10.00
2023-04-22T08:23:56.252Z,9.70
2023-04-22T08:26:24.233Z,10.50
2023-04-22T08:28:52.410Z,12.10
2023-04-22T08:31:20.369Z,9.40
2023-04-22T08:33:48.729Z,9.40
2023-04-22T08:36:17.061Z,10.30
2023-04-22T08:38:47.836Z,8.90
2023-04-22T08:41:19.322Z,9.60
2023-04-22T08:43:48.485Z,9.40
2023-04-22T08:46:17.970Z,9.50
2023-04-22T08:48:49.153Z,8.70
2023-04-22T08:51:18.554Z,9.60
2023-04-22T08:53:47.440Z,9.40
2023-04-22T08:56:15.854Z,8.20
2023-04-22T08:58:43.988Z,9.00
2023-04-22T09:01:13.440Z,8.50
2023-04-22T09:03:42.492Z,8.40
2023-04-22T09:06:12.252Z,8.50
2023-04-22T09:08:40.278Z,8.80
2023-04-22T09:11:08.454Z,8.10
2023-04-22T09:13:36.378Z,7.90
2023-04-22T09:16:04.880Z,7.50
2023-04-22T09:18:41.253Z,7.30
2023-04-22T09:21:09.256Z,8.40
2023-04-22T09:23:52.993Z,7.10
2023-04-22T09:29:01.162Z,6.30
2023-04-22T09:31:29.452Z,6.70
2023-04-22T09:33:59.169Z,6.40
2023-04-22T09:36:29.062Z,6.90
2023-04-22T09:38:59.674Z,7.10
2023-04-22T09:41:39.312Z,7.10
2023-04-22T09:44:16.382Z,6.00
2023-04-22T09:46:45.016Z,5.20
2023-04-22T09:49:16.892Z,5.30
2023-04-22T09:51:45.223Z,4.30
2023-04-22T09:54:15.488Z,5.10
2023-04-22T09:56:53.886Z,3.70
2023-04-22T09:59:28.852Z,3.90
2023-04-22T10:02:00.177Z,4.10
2023-04-22T10:04:28.864Z,3.70
2023-04-22T10:06:57.550Z,3.70
2023-04-22T17:56:49.961Z,14.40
2023-04-22T17:59:17.932Z,16.80
2023-04-22T18:01:46.062Z,17.30
2023-04-22T18:04:14.161Z,18.00
2023-04-22T18:06:42.316Z,17.10
2023-04-22T18:09:10.777Z,18.90
2023-04-22T18:11:39.521Z,20.50
2023-04-22T18:14:08.666Z,20.20
2023-04-22T18:16:36.523Z,22.10
2023-04-22T18:19:06.947Z,20.60
2023-04-22T18:21:34.887Z,18.30
2023-04-22T18:24:03.239Z,16.40
2023-04-22T18:26:31.699Z,17.50
2023-04-22T18:28:59.581Z,17.30
2023-04-22T18:31:27.524Z,16.80
2023-04-22T18:33:55.507Z,17.70
2023-04-22T18:36:23.514Z,20.70
2023-04-22T18:38:52.207Z,23.90
2023-04-22T18:41:20.689Z,23.40
2023-04-22T18:43:48.724Z,23.50
2023-04-22T18:46:16.701Z,22.40
2023-04-22T18:48:44.639Z,21.40
2023-04-22T18:51:13.619Z,22.90
2023-04-22T18:53:42.049Z,19.90
2023-04-22T18:56:10.429Z,16.40
2023-04-22T18:58:41.889Z,18.00
2023-04-22T19:01:12.016Z,15.90
2023-04-22T19:03:40.360Z,16.40
2023-04-22T19:06:08.736Z,18.10
2023-04-22T19:08:37.145Z,19.90
2023-04-22T19:11:05.752Z,22.50
2023-04-22T19:13:33.636Z,22.50
2023-04-22T19:16:01.660Z,21.00
2023-04-22T19:18:29.857Z,18.90
2023-04-22T19:20:58.176Z,20.10
2023-04-22T19:23:26.922Z,18.80
2023-04-22T19:25:54.715Z,18.90
2023-04-22T19:28:22.565Z,17.60
2023-04-22T19:30:51.981Z,16.80
2023-04-22T19:33:20.529Z,19.50
2023-04-22T19:35:49.129Z,20.80
2023-04-22T19:38:21.539Z,20.30
2023-04-22T19:40:50.980Z,18.50
2023-04-22T19:43:19.431Z,20.00
2023-04-22T19:45:47.730Z,21.20
2023-04-22T19:48:16.046Z,20.30
2023-04-22T19:50:50.734Z,21.10
2023-04-22T19:53:20.664Z,21.50
2023-04-22T19:55:48.744Z,20.00
2023-04-22T19:58:17.303Z,21.20
2023-04-22T20:00:46.230Z,19.80
2023-04-22T20:03:16.305Z,19.00
2023-04-22T20:05:46.745Z,20.10
2023-04-22T20:08:15.914Z,19.00
2023-04-22T20:10:45.172Z,19.10
2023-04-22T20:13:13.794Z,18.10
2023-04-22T20:15:45.834Z,18.20
2023-04-22T20:18:17.097Z,17.80
2023-04-22T20:20:49.217Z,17.70
2023-04-22T20:23:21.266Z,17.90
2023-04-22T20:25:50.959Z,17.80
2023-04-22T20:28:19.430Z,17.30
2023-04-22T20:30:47.877Z,16.60
2023-04-22T20:33:18.048Z,16.60
2023-04-22T20:35:49.368Z,17.00
2023-04-22T20:38:19.563Z,15.40
2023-04-22T20:40:47.840Z,16.30
2023-04-22T20:43:16.571Z,14.70
2023-04-22T20:45:44.396Z,14.90
2023-04-22T20:48:12.347Z,14.10
2023-04-22T20:50:40.853Z,15.00
2023-04-22T20:53:08.673Z,15.60
2023-04-22T20:55:37.303Z,16.50
2023-04-22T20:58:06.154Z,15.30
2023-04-22T21:00:34.340Z,18.90
2023-04-22T21:03:09.003Z,20.60
2023-04-22T21:05:46.916Z,21.80
2023-04-22T21:08:23.796Z,21.80
2023-04-22T21:10:56.966Z,23.00
2023-04-22T21:13:25.246Z,24.30
2023-04-22T21:16:02.081Z,24.10
2023-04-22T21:18:32.990Z,22.50
2023-04-22T21:21:04.057Z,24.10
2023-04-22T21:23:32.208Z,21.70
2023-04-22T21:26:01.766Z,21.00
2023-04-22T21:28:30.935Z,16.70
2023-04-22T21:30:59.824Z,19.00
2023-04-22T21:33:27.713Z,17.50
2023-04-22T21:35:55.653Z,18.30
2023-04-22T21:38:23.432Z,17.20
2023-04-22T21:40:51.265Z,18.00
2023-04-22T21:43:19.723Z,17.50
2023-04-22T21:45:48.249Z,16.90
2023-04-22T21:48:16.194Z,18.50
2023-04-22T21:50:44.158Z,20.20
2023-04-22T21:53:12.120Z,16.90
2023-04-22T21:55:40.928Z,17.00
2023-04-22T21:58:09.435Z,15.90
2023-04-22T22:00:37.966Z,16.20
2023-04-22T22:03:06.531Z,17.20
2023-04-22T22:05:34.522Z,15.30
2023-04-22T22:08:02.512Z,15.50
2023-04-22T22:10:30.515Z,15.40
2023-04-22T22:12:58.318Z,14.90
2023-04-22T22:15:26.178Z,15.80
2023-04-22T22:17:54.187Z,14.90
2023-04-22T22:20:22.087Z,14.50
2023-04-22T22:22:49.868Z,15.30
2023-04-22T22:25:17.884Z,14.80
2023-04-22T22:27:49.012Z,14.10
2023-04-22T22:30:18.839Z,13.30
2023-04-22T22:32:47.110Z,12.70
2023-04-22T22:35:15.278Z,13.60
2023-04-22T22:37:46.239Z,13.70
2023-04-22T22:40:14.570Z,13.70
2023-04-22T22:42:42.890Z,13.60
2023-04-22T22:45:11.800Z,12.50
2023-04-22T22:47:42.680Z,13.70
2023-04-22T22:50:11.666Z,12.90
2023-04-22T22:52:39.576Z,14.00
2023-04-22T22:55:09.163Z,12.50
2023-04-22T22:57:37.117Z,12.30
2023-04-22T23:00:06.521Z,14.20
2023-04-22T23:02:34.629Z,12.90
2023-04-22T23:05:02.800Z,23.70
2023-04-22T23:07:30.701Z,20.90
2023-04-22T23:09:58.528Z,20.10
2023-04-22T23:12:26.449Z,21.90
2023-04-22T23:14:54.256Z,22.80
2023-04-22T23:17:22.716Z,20.40
2023-04-22T23:19:52.320Z,21.00
2023-04-22T23:22:20.566Z,19.50
2023-04-22T23:24:48.656Z,23.80
2023-04-22T23:27:17.602Z,26.80
2023-04-22T23:29:45.962Z,27.50
2023-04-22T23:32:15.659Z,26.70
2023-04-22T23:34:45.785Z,29.80
2023-04-22T23:37:16.448Z,28.70
2023-04-22T23:39:44.450Z,28.80
2023-04-22T23:42:12.361Z,25.60
2023-04-22T23:44:40.507Z,26.50
2023-04-22T23:47:08.787Z,24.80
2023-04-22T23:49:37.110Z,25.50
2023-04-22T23:52:04.992Z,25.30
2023-04-22T23:54:33.278Z,24.20
2023-04-22T23:57:01.483Z,25.70
2023-04-22T23:59:29.670Z,23.30
